Time;durP1;ratioP1;P1;durP2;ratioP2;P2;SDS_P1;SDS_P2;PMS_P1;PMS_P2;Temp;Humidity;BMP_temperature;BMP_pressure;BME280_temperature;BME280_humidity;BME280_pressure;Samples;Min_cycle;Max_cycle;Signal;HPM_P1;HPM_P2
2022/01/01 00:00:38;;;;;;;16.08;11.57;;;10.80;99.90;;;;;;4995960;28;90106;-72
2022/01/01 00:03:04;;;;;;;15.27;11.27;;;10.80;99.90;;;;;;4996766;28;89388;-71
2022/01/01 00:05:30;;;;;;;16.70;11.90;;;10.70;99.90;;;;;;4978668;28;89751;-72
2022/01/01 00:07:57;;;;;;;16.33;11.50;;;10.70;99.90;;;;;;4996739;28;89706;-72
2022/01/01 00:10:22;;;;;;;15.48;10.98;;;10.60;99.90;;;;;;4996796;28;89811;-71
2022/01/01 00:12:48;;;;;;;14.73;10.93;;;10.60;99.90;;;;;;4996556;28;89713;-72
2022/01/01 00:15:15;;;;;;;13.13;10.50;;;10.60;99.90;;;;;;4978314;28;89369;-72
2022/01/01 00:17:42;;;;;;;14.45;11.20;;;10.60;99.90;;;;;;4996906;28;89953;-72
2022/01/01 00:20:09;;;;;;;17.63;11.38;;;10.50;99.90;;;;;;4996513;28;89918;-71
2022/01/01 00:22:36;;;;;;;16.27;11.63;;;10.50;99.90;;;;;;4978367;28;91341;-71
2022/01/01 00:25:02;;;;;;;15.00;11.25;;;10.50;99.90;;;;;;4996180;28;90333;-71
2022/01/01 00:27:28;;;;;;;16.02;11.00;;;10.50;99.90;;;;;;4996580;28;89860;-72
2022/01/01 00:29:54;;;;;;;20.05;11.07;;;10.50;99.90;;;;;;4997025;28;90031;-71
2022/01/01 05:02:17;;;;;;;7.68;4.93;;;9.80;99.90;;;;;;5142973;22;90499;-75
2022/01/01 05:04:43;;;;;;;8.50;4.75;;;9.90;99.90;;;;;;4981917;28;93277;-75
2022/01/01 05:07:08;;;;;;;7.43;5.00;;;9.90;99.90;;;;;;5000569;28;89858;-75
2022/01/01 05:09:34;;;;;;;6.78;4.80;;;9.90;99.90;;;;;;5000647;28;89688;-75
2022/01/01 05:12:00;;;;;;;7.55;4.68;;;10.00;99.90;;;;;;4999917;28;90071;-75
2022/01/01 05:14:25;;;;;;;7.50;4.80;;;9.90;99.90;;;;;;5000552;28;91047;-76
2022/01/01 05:16:52;;;;;;;8.30;4.35;;;9.90;99.90;;;;;;4982438;28;93298;-75
2022/01/01 05:19:19;;;;;;;6.30;4.40;;;9.90;99.90;;;;;;5000470;28;89249;-75
2022/01/01 05:21:44;;;;;;;7.00;4.90;;;9.90;99.90;;;;;;5000133;28;90186;-75
2022/01/01 05:24:12;;;;;;;6.45;4.38;;;10.00;99.90;;;;;;5000414;28;90388;-75
2022/01/01 05:26:38;;;;;;;7.97;4.22;;;10.00;99.90;;;;;;4999531;28;89149;-75
2022/01/01 05:29:03;;;;;;;6.68;4.55;;;10.00;99.90;;;;;;5000147;28;89294;-75
2022/01/01 05:31:33;;;;;;;9.55;5.35;;;10.00;99.90;;;;;;5000437;28;90117;-75
2022/01/01 05:33:59;;;;;;;7.20;4.97;;;10.00;99.90;;;;;;4999722;28;89400;-75
2022/01/01 05:36:24;;;;;;;7.95;5.70;;;10.00;99.90;;;;;;4999948;28;89573;-75
2022/01/01 05:38:50;;;;;;;7.82;6.00;;;10.00;99.90;;;;;;4999611;28;90238;-75
2022/01/01 05:41:15;;;;;;;8.95;6.22;;;10.00;99.90;;;;;;4999683;28;91060;-75
2022/01/01 05:43:41;;;;;;;7.75;5.70;;;10.00;99.90;;;;;;4999936;28;89948;-75
2022/01/01 05:46:06;;;;;;;9.07;6.18;;;10.00;99.90;;;;;;4999856;28;89824;-75
2022/01/01 05:48:32;;;;;;;10.25;5.60;;;9.90;99.90;;;;;;4981963;28;89274;-75
2022/01/01 05:50:58;;;;;;;8.57;5.68;;;9.90;99.90;;;;;;4999674;28;89813;-75
2022/01/01 05:53:24;;;;;;;9.52;6.45;;;9.90;99.90;;;;;;4999605;28;91467;-75
2022/01/01 05:55:50;;;;;;;8.18;6.13;;;9.90;99.90;;;;;;4999993;28;88962;-76
2022/01/01 05:58:15;;;;;;;9.20;6.65;;;9.90;99.90;;;;;;4999869;28;89311;-75
2022/01/01 06:00:41;;;;;;;8.23;6.20;;;9.80;99.90;;;;;;4980617;28;92528;-75
2022/01/01 06:03:08;;;;;;;9.02;6.40;;;9.80;99.90;;;;;;4998729;28;90293;-75
2022/01/01 06:05:34;;;;;;;8.15;6.25;;;9.80;99.90;;;;;;4999259;28;91205;-75
2022/01/01 06:08:00;;;;;;;8.82;6.78;;;9.80;99.90;;;;;;4998960;28;89371;-75
2022/01/01 06:10:27;;;;;;;9.68;7.13;;;9.70;99.90;;;;;;4981245;28;92945;-76
2022/01/01 06:12:53;;;;;;;10.13;7.03;;;9.70;99.90;;;;;;4999152;28;89291;-75
2022/01/01 06:15:19;;;;;;;9.30;6.47;;;9.70;99.90;;;;;;4981047;28;91853;-75
2022/01/01 06:17:44;;;;;;;11.63;7.35;;;9.70;99.90;;;;;;4999748;28;89399;-75
2022/01/01 06:20:10;;;;;;;12.05;7.38;;;9.70;99.90;;;;;;4999608;28;89580;-75
2022/01/01 06:22:36;;;;;;;12.43;7.60;;;9.70;99.90;;;;;;4999030;28;89882;-75
2022/01/01 06:25:03;;;;;;;10.43;6.80;;;9.70;99.90;;;;;;4981052;28;92534;-75
2022/01/01 06:27:28;;;;;;;12.35;6.78;;;9.70;99.90;;;;;;4998588;28;90187;-75
2022/01/01 06:29:54;;;;;;;12.68;7.70;;;9.70;99.90;;;;;;4998980;28;90022;-75
2022/01/01 06:32:20;;;;;;;11.15;7.65;;;9.70;99.90;;;;;;4998669;28;90032;-75
2022/01/01 06:34:45;;;;;;;10.23;7.10;;;9.70;99.90;;;;;;4999029;28;89293;-75
2022/01/01 06:37:11;;;;;;;10.38;7.05;;;9.70;99.90;;;;;;4981047;28;89357;-75
2022/01/01 06:39:37;;;;;;;10.98;7.18;;;9.70;99.90;;;;;;4998308;28;89697;-75
2022/01/01 06:42:03;;;;;;;12.10;7.80;;;9.70;99.90;;;;;;4980401;28;92045;-75
2022/01/01 06:44:29;;;;;;;11.15;7.68;;;9.70;99.90;;;;;;4999361;28;89697;-75
2022/01/01 06:46:54;;;;;;;15.02;8.70;;;9.80;99.90;;;;;;4998861;28;89206;-75
2022/01/01 06:49:20;;;;;;;15.27;9.77;;;9.70;99.90;;;;;;4998948;28;89585;-75
2022/01/01 06:51:45;;;;;;;16.42;10.45;;;9.80;99.90;;;;;;4998099;28;90106;-75
2022/01/01 06:54:11;;;;;;;17.95;11.07;;;9.70;99.90;;;;;;4997622;28;91183;-75
2022/01/01 06:56:37;;;;;;;19.13;11.25;;;9.70;99.90;;;;;;4998188;28;89288;-75
2022/01/01 06:59:02;;;;;;;19.00;11.02;;;9.80;99.90;;;;;;4998395;28;89672;-75
2022/01/01 07:01:28;;;;;;;19.15;10.75;;;9.80;99.90;;;;;;4998344;28;90412;-76
2022/01/01 07:03:54;;;;;;;22.63;12.52;;;9.80;99.90;;;;;;5020294;28;88862;-75
2022/01/01 07:06:19;;;;;;;22.50;13.57;;;9.80;99.90;;;;;;5016185;28;89327;-75
2022/01/01 07:08:45;;;;;;;25.08;14.43;;;9.80;99.90;;;;;;4998427;28;89997;-75
2022/01/01 07:11:11;;;;;;;24.38;14.48;;;9.80;99.90;;;;;;4997478;28;91385;-75
2022/01/01 07:13:38;;;;;;;24.75;14.65;;;9.80;99.90;;;;;;4997547;28;89553;-75
2022/01/01 07:16:04;;;;;;;23.60;14.77;;;9.80;99.90;;;;;;4997899;28;90208;-75
2022/01/01 07:18:30;;;;;;;25.33;15.13;;;9.80;99.90;;;;;;4979766;28;92532;-75
2022/01/01 07:20:55;;;;;;;24.65;15.82;;;9.80;99.90;;;;;;5002348;28;89301;-76
2022/01/01 07:23:21;;;;;;;25.48;16.25;;;9.80;99.90;;;;;;4984177;28;91808;-76
2022/01/01 07:25:46;;;;;;;25.77;16.52;;;9.80;99.90;;;;;;5000348;28;89224;-77
2022/01/01 07:28:14;;;;;;;23.73;15.07;;;9.80;99.90;;;;;;5000025;28;89197;-77
2022/01/01 07:30:40;;;;;;;24.05;15.95;;;9.80;99.90;;;;;;4983482;28;91605;-77
2022/01/01 07:33:06;;;;;;;24.80;15.27;;;9.90;99.90;;;;;;5000290;28;89721;-77
2022/01/01 07:35:36;;;;;;;23.85;15.02;;;10.00;99.90;;;;;;5000151;28;89394;-77
2022/01/01 07:38:01;;;;;;;25.67;16.08;;;9.90;99.90;;;;;;5000482;28;90043;-77
2022/01/01 07:40:28;;;;;;;27.48;16.65;;;9.90;99.90;;;;;;4980590;28;93012;-76
2022/01/01 07:42:54;;;;;;;23.20;15.23;;;9.90;99.90;;;;;;4997974;28;89471;-76
2022/01/01 07:45:20;;;;;;;25.52;15.07;;;9.90;99.90;;;;;;4980250;28;89271;-77
2022/01/01 07:47:45;;;;;;;23.27;14.10;;;10.00;99.90;;;;;;4998098;28;89763;-76
2022/01/01 07:50:11;;;;;;;22.65;15.15;;;10.00;99.90;;;;;;4996806;28;90135;-76
2022/01/01 07:52:37;;;;;;;23.83;15.18;;;10.10;99.90;;;;;;4997042;28;90041;-77
2022/01/01 07:55:03;;;;;;;22.75;14.55;;;10.10;99.90;;;;;;4997744;28;89306;-76
2022/01/01 07:57:28;;;;;;;21.40;14.57;;;10.20;99.90;;;;;;4997556;28;90228;-76
2022/01/01 07:59:54;;;;;;;22.70;14.52;;;10.20;99.90;;;;;;4998096;28;89975;-76
2022/01/01 08:02:19;;;;;;;19.90;13.60;;;10.20;99.90;;;;;;4996486;28;89198;-76
2022/01/01 08:04:45;;;;;;;20.20;13.80;;;10.30;99.90;;;;;;4978903;28;90203;-77
2022/01/01 08:07:11;;;;;;;21.20;13.75;;;10.30;99.90;;;;;;4978705;28;91934;-77
2022/01/01 08:09:38;;;;;;;21.73;14.00;;;10.40;99.90;;;;;;4998772;28;92085;-77
2022/01/01 08:12:07;;;;;;;21.02;13.52;;;10.40;99.90;;;;;;4998395;28;90543;-76
2022/01/01 08:14:33;;;;;;;23.85;14.27;;;10.50;99.90;;;;;;4998960;28;89142;-76
2022/01/01 08:17:06;;;;;;;21.45;13.75;;;10.50;99.90;;;;;;4999141;28;90310;-76
2022/01/01 08:19:32;;;;;;;21.42;13.27;;;10.60;99.90;;;;;;4998913;28;90482;-76
2022/01/01 08:21:58;;;;;;;19.40;13.65;;;10.70;99.90;;;;;;4999064;28;89834;-77
2022/01/01 08:24:24;;;;;;;19.05;14.30;;;10.70;99.90;;;;;;4998166;28;89254;-77
2022/01/01 08:26:51;;;;;;;19.80;13.20;;;10.70;99.90;;;;;;4996360;28;89231;-77
2022/01/01 08:29:17;;;;;;;21.33;13.43;;;10.80;99.90;;;;;;4996094;28;90385;-77
2022/01/01 08:31:43;;;;;;;20.00;12.95;;;10.90;99.90;;;;;;4996360;28;90782;-77
2022/01/01 08:34:09;;;;;;;20.10;13.50;;;10.90;99.90;;;;;;4978469;28;89308;-77
2022/01/01 08:36:35;;;;;;;19.13;12.07;;;10.90;99.90;;;;;;4996760;28;89645;-77
2022/01/01 08:39:01;;;;;;;19.77;11.52;;;11.00;99.90;;;;;;4996523;28;90262;-77
2022/01/01 08:41:26;;;;;;;25.38;12.15;;;11.10;99.90;;;;;;4978096;28;90075;-77
2022/01/01 08:43:53;;;;;;;19.05;11.20;;;11.20;99.90;;;;;;4996375;28;89165;-77
2022/01/01 08:46:19;;;;;;;17.05;11.65;;;11.30;99.90;;;;;;4996761;28;90360;-77
2022/01/01 08:48:44;;;;;;;16.45;11.75;;;11.30;99.90;;;;;;4996527;28;89763;-77
2022/01/01 08:51:20;;;;;;;17.45;11.77;;;11.30;99.90;;;;;;4996263;28;89161;-77
2022/01/01 08:53:46;;;;;;;16.30;11.43;;;11.40;99.90;;;;;;4995811;28;90233;-75
2022/01/01 08:56:13;;;;;;;18.20;11.73;;;11.40;99.90;;;;;;4996286;28;90209;-75
2022/01/01 08:58:39;;;;;;;17.90;12.18;;;11.40;99.90;;;;;;4996201;28;90412;-74
2022/01/01 09:01:06;;;;;;;19.85;12.50;;;11.40;99.90;;;;;;4995571;28;91898;-75
2022/01/01 09:03:35;;;;;;;15.75;10.80;;;11.50;99.90;;;;;;4999706;28;89181;-75
2022/01/01 09:06:01;;;;;;;16.73;11.23;;;11.60;99.90;;;;;;4999447;28;90269;-75
2022/01/01 09:08:27;;;;;;;17.38;11.98;;;11.50;99.90;;;;;;4999334;28;90633;-75
2022/01/01 09:10:52;;;;;;;16.75;11.73;;;11.60;99.90;;;;;;4999777;28;89022;-75
2022/01/01 09:13:18;;;;;;;17.17;11.50;;;11.60;99.90;;;;;;4999417;28;89479;-75
2022/01/01 09:15:43;;;;;;;19.67;12.15;;;11.70;99.90;;;;;;4999558;28;89719;-75
2022/01/01 09:18:09;;;;;;;17.30;12.18;;;11.80;99.90;;;;;;4980645;28;92820;-75
2022/01/01 09:20:34;;;;;;;15.68;11.70;;;11.90;99.90;;;;;;4999470;28;91151;-75
2022/01/01 09:23:00;;;;;;;17.42;11.98;;;11.90;99.90;;;;;;4998804;28;89417;-75
2022/01/01 09:25:25;;;;;;;18.17;11.73;;;12.00;99.90;;;;;;4999376;28;90035;-75
2022/01/01 09:27:51;;;;;;;17.40;11.50;;;12.00;99.90;;;;;;4999570;28;89898;-75
2022/01/01 09:30:16;;;;;;;18.00;11.63;;;12.10;99.90;;;;;;4999270;28;89352;-75
2022/01/01 09:32:42;;;;;;;17.00;12.60;;;12.20;99.90;;;;;;4999264;28;89226;-75
2022/01/01 09:35:08;;;;;;;15.95;11.05;;;12.20;99.90;;;;;;4999535;28;89758;-75
2022/01/01 09:37:33;;;;;;;16.58;11.57;;;12.30;99.90;;;;;;4999248;28;89583;-76
2022/01/01 09:40:00;;;;;;;15.20;11.13;;;12.30;99.90;;;;;;4999420;28;89202;-75
2022/01/01 09:42:26;;;;;;;16.52;12.23;;;12.30;99.90;;;;;;4998551;28;90282;-75
2022/01/01 09:44:52;;;;;;;16.38;12.10;;;12.40;99.90;;;;;;4980955;28;90959;-75
2022/01/01 09:47:18;;;;;;;16.15;11.57;;;12.40;99.90;;;;;;4998840;28;90614;-76
2022/01/01 09:49:43;;;;;;;17.58;12.82;;;12.50;99.90;;;;;;4999407;28;90320;-76
2022/01/01 09:52:12;;;;;;;15.82;11.80;;;12.50;99.90;;;;;;4980646;28;89323;-76
2022/01/01 09:54:37;;;;;;;15.48;10.55;;;12.50;99.90;;;;;;4998999;28;89192;-76
2022/01/01 09:57:03;;;;;;;17.58;11.25;;;12.60;99.90;;;;;;4998989;28;89459;-76
2022/01/01 09:59:29;;;;;;;15.30;11.20;;;12.70;99.90;;;;;;4999401;28;89111;-76
2022/01/01 10:01:54;;;;;;;14.43;10.10;;;12.80;99.90;;;;;;4998341;28;89383;-76
2022/01/01 10:04:20;;;;;;;14.18;9.00;;;12.80;99.90;;;;;;4998794;28;89191;-76
2022/01/01 10:07:02;;;;;;;12.35;8.90;;;12.90;99.90;;;;;;4998983;28;91134;-76
2022/01/01 10:09:32;;;;;;;14.75;9.52;;;12.90;99.90;;;;;;5000664;28;89736;-75
2022/01/01 10:11:59;;;;;;;12.35;8.55;;;12.90;99.90;;;;;;5018752;28;89235;-75
2022/01/01 10:14:39;;;;;;;12.32;8.88;;;12.90;99.90;;;;;;5014872;28;90240;-75
2022/01/01 10:17:25;;;;;;;12.38;8.90;;;13.00;99.90;;;;;;4981012;28;92756;-76
2022/01/01 10:19:52;;;;;;;13.27;8.30;;;13.10;99.90;;;;;;4998693;28;90494;-76
2022/01/01 10:22:24;;;;;;;12.57;9.25;;;13.20;99.90;;;;;;4999099;28;89696;-76
2022/01/01 10:27:55;;;;;;;15.18;9.40;;;13.10;99.90;;;;;;4998926;28;89169;-76
2022/01/01 10:30:36;;;;;;;16.77;10.55;;;12.90;99.90;;;;;;4998964;28;89325;-76
2022/01/01 10:33:15;;;;;;;12.75;9.27;;;12.70;99.90;;;;;;4997921;28;90517;-76
2022/01/01 10:35:44;;;;;;;17.23;10.57;;;12.50;99.90;;;;;;4980973;28;92862;-76
2022/01/01 10:38:26;;;;;;;15.30;10.23;;;12.30;99.90;;;;;;4998086;28;90485;-76
2022/01/01 10:41:10;;;;;;;13.65;8.90;;;12.00;99.90;;;;;;4997839;28;89161;-76
2022/01/01 10:43:41;;;;;;;12.05;8.48;;;11.90;99.90;;;;;;4998880;28;89163;-76
2022/01/01 10:46:16;;;;;;;11.30;8.32;;;11.80;99.90;;;;;;4998505;28;89531;-76
2022/01/01 10:48:55;;;;;;;11.68;8.40;;;11.80;99.90;;;;;;4999154;28;89991;-76
2022/01/01 10:51:21;;;;;;;13.20;7.75;;;11.70;99.90;;;;;;4999158;28;90025;-76
2022/01/01 10:53:59;;;;;;;13.68;8.18;;;11.70;99.90;;;;;;4980570;28;89336;-76
2022/01/01 10:56:24;;;;;;;12.40;7.13;;;11.60;99.90;;;;;;4998740;28;90146;-76
2022/01/01 10:59:00;;;;;;;12.38;7.93;;;11.60;99.90;;;;;;4997772;28;92425;-76
2022/01/01 11:01:25;;;;;;;12.07;7.43;;;11.60;99.90;;;;;;4998112;28;91174;-76
2022/01/01 11:03:54;;;;;;;13.55;7.50;;;11.60;99.90;;;;;;4998837;28;89247;-76
2022/01/01 11:06:20;;;;;;;10.15;6.75;;;11.60;99.90;;;;;;4998216;28;89305;-76
2022/01/01 11:08:47;;;;;;;10.85;7.40;;;11.60;99.90;;;;;;4999055;28;90538;-76
2022/01/01 11:11:15;;;;;;;12.82;7.55;;;11.80;99.90;;;;;;4998160;28;89640;-75
2022/01/01 11:13:41;;;;;;;10.60;7.20;;;11.90;99.90;;;;;;4998269;28;89254;-76
2022/01/01 11:16:08;;;;;;;10.52;7.00;;;12.00;99.90;;;;;;5022019;22;89750;-71
2022/01/01 11:18:35;;;;;;;9.98;7.10;;;12.10;99.90;;;;;;4998025;28;89521;-72
2022/01/01 11:21:03;;;;;;;9.43;6.43;;;12.20;99.90;;;;;;4979971;28;91374;-71
2022/01/01 11:23:30;;;;;;;9.43;6.57;;;12.30;99.90;;;;;;4997643;28;90227;-71
2022/01/01 11:25:55;;;;;;;9.88;7.20;;;12.40;99.90;;;;;;4997351;28;89382;-71
2022/01/01 11:28:22;;;;;;;9.27;6.22;;;12.50;99.90;;;;;;4998385;28;90046;-71
2022/01/01 11:30:53;;;;;;;9.27;6.15;;;12.50;99.90;;;;;;4998242;28;89519;-71
2022/01/01 11:33:31;;;;;;;7.95;6.03;;;12.50;99.90;;;;;;4997741;28;89253;-72
2022/01/01 11:35:59;;;;;;;9.85;6.07;;;12.60;99.90;;;;;;4998116;28;89196;-72
2022/01/01 11:38:26;;;;;;;10.43;6.25;;;12.70;99.90;;;;;;4997955;28;89401;-71
2022/01/01 11:40:56;;;;;;;10.57;6.22;;;12.80;99.90;;;;;;4998330;28;89615;-71
2022/01/01 11:43:46;;;;;;;10.98;6.07;;;12.90;99.90;;;;;;4997809;28;89178;-71
2022/01/01 11:46:29;;;;;;;9.73;6.15;;;12.90;99.90;;;;;;4997804;28;90006;-71
2022/01/01 11:49:00;;;;;;;12.77;6.78;;;13.10;99.90;;;;;;4997725;28;90281;-71
2022/01/01 11:51:46;;;;;;;10.52;6.70;;;13.20;99.90;;;;;;4979784;28;92057;-72
2022/01/01 11:54:14;;;;;;;18.00;10.13;;;13.30;99.90;;;;;;4979339;28;89201;-71
2022/01/01 11:56:49;;;;;;;9.57;6.13;;;13.30;99.90;;;;;;4978907;28;91851;-72
2022/01/01 11:59:17;;;;;;;14.27;8.40;;;13.40;99.90;;;;;;4979454;28;90861;-71
2022/01/01 12:01:43;;;;;;;12.93;7.65;;;13.40;99.90;;;;;;4997803;28;90000;-72
2022/01/01 12:04:23;;;;;;;9.43;5.88;;;13.40;99.90;;;;;;4997336;28;89359;-72
2022/01/01 12:07:00;;;;;;;9.30;6.25;;;13.50;99.90;;;;;;4998301;28;89678;-72
2022/01/01 12:09:26;;;;;;;21.95;13.30;;;13.60;99.90;;;;;;4997637;28;89346;-73
2022/01/01 12:11:57;;;;;;;11.10;7.82;;;13.60;99.90;;;;;;4996556;28;89572;-73
2022/01/01 12:14:25;;;;;;;9.77;6.05;;;13.70;99.90;;;;;;4996303;28;90157;-73
2022/01/01 12:16:53;;;;;;;8.30;5.70;;;13.80;99.90;;;;;;4997113;28;89349;-73
2022/01/01 12:19:23;;;;;;;9.18;6.32;;;13.90;99.90;;;;;;4996995;28;89278;-73
2022/01/01 12:22:07;;;;;;;8.32;5.78;;;13.90;99.90;;;;;;4997163;28;89237;-73
2022/01/01 12:24:35;;;;;;;8.15;5.63;;;13.90;99.90;;;;;;4997277;28;89309;-73
2022/01/01 12:27:12;;;;;;;8.77;6.00;;;13.90;99.90;;;;;;4979034;28;92479;-72
2022/01/01 12:29:38;;;;;;;8.57;5.90;;;13.90;99.90;;;;;;4997251;28;90002;-72
2022/01/01 12:32:07;;;;;;;8.05;6.28;;;13.90;99.90;;;;;;4997316;28;89684;-72
2022/01/01 12:34:34;;;;;;;10.65;6.28;;;13.90;99.90;;;;;;4996889;28;89193;-73
2022/01/01 12:37:04;;;;;;;10.13;6.43;;;13.90;99.90;;;;;;4998670;28;89431;-72
2022/01/01 12:39:50;;;;;;;9.45;5.57;;;13.90;99.90;;;;;;5000044;28;90734;-72
2022/01/01 12:42:30;;;;;;;8.48;5.28;;;13.90;99.90;;;;;;4999680;28;91920;-73
2022/01/01 12:45:07;;;;;;;9.27;5.70;;;13.90;99.90;;;;;;5000388;28;89311;-73
2022/01/01 12:47:33;;;;;;;10.25;6.10;;;13.80;99.90;;;;;;5000508;28;89628;-73
2022/01/01 12:50:04;;;;;;;9.65;5.80;;;13.70;99.90;;;;;;5000341;28;89964;-72
2022/01/01 12:52:30;;;;;;;8.98;6.07;;;13.60;99.90;;;;;;5000138;28;89732;-72
2022/01/01 12:55:01;;;;;;;9.52;5.88;;;13.60;99.90;;;;;;5000179;28;89277;-72
2022/01/01 12:57:27;;;;;;;8.13;5.60;;;13.70;99.90;;;;;;5000428;28;89656;-72
2022/01/01 12:59:56;;;;;;;8.25;5.85;;;13.70;99.90;;;;;;4982186;28;92574;-73
2022/01/01 13:02:23;;;;;;;7.95;5.05;;;13.70;99.90;;;;;;5000116;28;89572;-71
2022/01/01 13:04:49;;;;;;;8.13;5.75;;;13.70;99.90;;;;;;4999160;28;90312;-71
2022/01/01 13:07:21;;;;;;;9.07;5.90;;;13.70;99.90;;;;;;5000309;28;89737;-74
2022/01/01 13:09:47;;;;;;;8.00;5.82;;;13.70;99.90;;;;;;5000405;28;90092;-72
2022/01/01 13:12:17;;;;;;;9.07;5.25;;;13.70;99.90;;;;;;4999954;28;89572;-78
2022/01/01 13:14:43;;;;;;;7.82;4.95;;;13.70;99.90;;;;;;4999623;28;89414;-75
2022/01/01 13:17:08;;;;;;;7.05;4.88;;;13.60;99.90;;;;;;4996880;28;89923;-71
2022/01/01 13:19:35;;;;;;;7.20;5.43;;;13.60;99.90;;;;;;5000361;28;90411;-70
2022/01/01 13:22:05;;;;;;;7.47;5.45;;;13.70;99.90;;;;;;4994849;28;88757;-71
2022/01/01 13:24:32;;;;;;;8.10;5.30;;;13.60;99.90;;;;;;5009322;28;89356;-74
2022/01/01 13:26:58;;;;;;;8.02;5.47;;;13.60;99.90;;;;;;4998133;28;89674;-73
2022/01/01 13:29:27;;;;;;;7.28;5.10;;;13.60;99.90;;;;;;4988355;28;90810;-75
2022/01/01 13:31:58;;;;;;;8.10;5.07;;;13.60;99.90;;;;;;4986789;28;89902;-73
2022/01/01 13:34:23;;;;;;;7.07;5.10;;;13.60;99.90;;;;;;4988422;28;89442;-72
2022/01/01 13:36:49;;;;;;;9.68;5.80;;;13.60;99.90;;;;;;4990418;28;89667;-73
2022/01/01 13:39:21;;;;;;;6.95;5.00;;;13.60;99.90;;;;;;4988223;28;89531;-72
2022/01/01 13:41:53;;;;;;;7.60;5.25;;;13.60;99.90;;;;;;4962112;28;91745;-72
2022/01/01 13:44:24;;;;;;;8.30;5.32;;;13.60;99.90;;;;;;4980024;28;89192;-72
2022/01/01 13:46:52;;;;;;;7.63;5.57;;;13.60;99.90;;;;;;4979955;28;90183;-73
2022/01/01 13:49:18;;;;;;;9.02;5.40;;;13.50;99.90;;;;;;4979441;28;93431;-74
2022/01/01 13:51:44;;;;;;;8.52;5.07;;;13.50;99.90;;;;;;4980122;28;89763;-76
2022/01/01 13:54:14;;;;;;;7.85;5.15;;;13.40;99.90;;;;;;4979499;28;90186;-74
2022/01/01 13:56:40;;;;;;;8.82;5.22;;;13.40;99.90;;;;;;4979891;28;90748;-73
2022/01/01 13:59:07;;;;;;;9.07;5.10;;;13.30;99.90;;;;;;4962164;28;91649;-73
2022/01/01 14:01:36;;;;;;;8.50;5.55;;;13.30;99.90;;;;;;4980005;28;89331;-75
2022/01/01 14:04:04;;;;;;;5.85;4.30;;;13.30;99.90;;;;;;4979621;28;89288;-75
2022/01/01 14:06:30;;;;;;;7.03;5.25;;;13.20;99.90;;;;;;4985186;28;89954;-75
2022/01/01 14:09:04;;;;;;;7.10;5.30;;;13.10;99.90;;;;;;4974431;28;93098;-76
2022/01/01 14:11:37;;;;;;;7.75;5.68;;;13.10;99.90;;;;;;4981130;28;90225;-75
2022/01/01 14:14:05;;;;;;;8.43;5.20;;;13.00;99.90;;;;;;4999137;28;89331;-75
2022/01/01 14:16:30;;;;;;;9.10;5.75;;;13.00;99.90;;;;;;4998579;28;89676;-74
2022/01/01 14:18:56;;;;;;;8.95;5.55;;;12.90;99.90;;;;;;4998553;28;90924;-75
2022/01/01 14:21:25;;;;;;;10.65;5.53;;;12.80;99.90;;;;;;5001253;28;90489;-74
2022/01/01 14:23:54;;;;;;;8.70;5.45;;;12.70;99.90;;;;;;5015142;28;89579;-74
2022/01/01 14:26:22;;;;;;;9.95;5.65;;;12.50;99.90;;;;;;4999067;28;89401;-74
2022/01/01 14:28:49;;;;;;;10.15;5.97;;;12.40;99.90;;;;;;5005573;28;91973;-74
2022/01/01 14:31:15;;;;;;;9.43;5.57;;;12.20;99.90;;;;;;5013638;28;91659;-74
2022/01/01 14:33:41;;;;;;;7.47;5.55;;;12.10;99.90;;;;;;4999096;28;89196;-74
2022/01/01 14:36:09;;;;;;;8.98;5.38;;;12.00;99.90;;;;;;5014407;28;92850;-74
2022/01/01 14:38:36;;;;;;;8.93;5.68;;;11.90;99.90;;;;;;4998722;28;89326;-74
2022/01/01 14:41:03;;;;;;;8.82;5.13;;;11.70;99.90;;;;;;4992723;28;89445;-74
2022/01/01 14:43:29;;;;;;;7.93;5.38;;;11.60;99.90;;;;;;4982002;28;90266;-74
2022/01/01 14:45:55;;;;;;;10.07;6.07;;;11.40;99.90;;;;;;4984674;28;89734;-74
2022/01/01 14:48:36;;;;;;;9.65;6.20;;;11.30;99.90;;;;;;4988176;28;90170;-73
2022/01/01 14:51:07;;;;;;;14.55;7.78;;;11.10;99.90;;;;;;4991807;28;89619;-74
2022/01/01 14:54:03;;;;;;;14.75;8.13;;;10.90;99.90;;;;;;4992176;28;89419;-74
2022/01/01 14:56:57;;;;;;;13.93;8.32;;;10.70;99.90;;;;;;4992784;28;90262;-74
2022/01/01 14:59:34;;;;;;;14.57;9.10;;;10.60;99.90;;;;;;4970727;28;89775;-74
2022/01/01 15:02:00;;;;;;;14.88;8.80;;;10.40;99.90;;;;;;4978419;28;88996;-74
2022/01/01 15:04:28;;;;;;;14.13;9.18;;;10.20;99.90;;;;;;4987044;28;89904;-74
2022/01/01 15:06:57;;;;;;;14.75;10.35;;;10.00;99.90;;;;;;4991479;28;89556;-74
2022/01/01 15:09:26;;;;;;;18.45;10.50;;;9.90;99.90;;;;;;4976903;28;90161;-74
2022/01/01 15:11:52;;;;;;;16.80;9.82;;;9.80;99.90;;;;;;4996805;28;91084;-74
2022/01/01 15:14:18;;;;;;;15.25;9.90;;;9.60;99.90;;;;;;5017615;28;89320;-75
2022/01/01 15:16:44;;;;;;;16.40;10.07;;;9.50;99.90;;;;;;5018180;28;89813;-79
2022/01/01 15:19:09;;;;;;;14.35;8.82;;;9.40;99.90;;;;;;4984409;28;92824;-75
2022/01/01 15:21:56;;;;;;;14.20;9.32;;;9.30;99.90;;;;;;4997615;28;91188;-74
2022/01/01 15:24:29;;;;;;;14.68;9.68;;;9.10;99.90;;;;;;4994546;28;89636;-75
2022/01/01 15:26:55;;;;;;;16.50;9.70;;;9.00;99.90;;;;;;4983809;28;89697;-75
2022/01/01 15:29:38;;;;;;;14.52;9.32;;;8.90;99.90;;;;;;4977731;28;90177;-75
2022/01/01 15:35:00;;;;;;;13.57;7.63;;;8.70;99.90;;;;;;4977176;28;90324;-75
2022/01/01 15:37:27;;;;;;;14.27;8.23;;;8.60;99.90;;;;;;4978128;28;89963;-76
2022/01/01 15:40:03;;;;;;;15.77;8.65;;;8.50;99.90;;;;;;4976877;28;89785;-74
2022/01/01 15:42:28;;;;;;;11.15;7.93;;;8.40;99.90;;;;;;4959824;28;92467;-75
2022/01/01 15:44:54;;;;;;;12.50;7.68;;;8.30;99.90;;;;;;4978149;28;89400;-75
2022/01/01 15:47:20;;;;;;;15.15;9.10;;;8.20;99.90;;;;;;4977911;28;89453;-75
2022/01/01 15:49:47;;;;;;;16.17;10.18;;;8.10;99.90;;;;;;4959819;28;91865;-74
2022/01/01 15:52:19;;;;;;;15.57;10.38;;;8.00;99.90;;;;;;4977334;28;88908;-75
2022/01/01 15:54:51;;;;;;;17.98;9.85;;;7.90;99.90;;;;;;4977278;28;89327;-74
2022/01/01 15:57:40;;;;;;;16.05;9.07;;;7.80;99.90;;;;;;4977617;28;89346;-75
2022/01/01 16:00:12;;;;;;;19.95;10.35;;;7.70;99.90;;;;;;4977365;28;90925;-75
2022/01/01 16:02:50;;;;;;;15.95;10.52;;;7.70;99.90;;;;;;4976159;28;91172;-75
2022/01/01 16:05:36;;;;;;;18.42;12.05;;;7.60;99.90;;;;;;4977157;28;89258;-75
2022/01/01 16:08:31;;;;;;;21.60;14.15;;;7.60;99.90;;;;;;4976836;28;90339;-75
2022/01/01 16:11:02;;;;;;;18.42;12.77;;;7.60;99.90;;;;;;4976710;28;90364;-75
2022/01/01 16:13:30;;;;;;;19.80;12.65;;;7.50;99.90;;;;;;4976764;28;90219;-74
2022/01/01 16:16:05;;;;;;;20.08;12.73;;;7.40;99.90;;;;;;4976616;28;89254;-75
2022/01/01 16:18:35;;;;;;;19.95;11.82;;;7.30;99.90;;;;;;4977221;28;89009;-74
2022/01/01 16:21:01;;;;;;;15.70;10.05;;;7.30;99.90;;;;;;4976787;28;89346;-75
2022/01/01 16:23:29;;;;;;;19.88;11.98;;;7.20;99.90;;;;;;4976208;28;89629;-73
2022/01/01 16:25:56;;;;;;;18.25;12.02;;;7.10;99.90;;;;;;4957791;28;90690;-73
2022/01/01 16:28:24;;;;;;;18.38;10.80;;;7.00;99.90;;;;;;4976491;28;90273;-74
2022/01/01 16:30:50;;;;;;;15.65;9.80;;;7.00;99.90;;;;;;4976674;28;89287;-73
2022/01/01 16:33:17;;;;;;;20.77;11.05;;;7.00;99.90;;;;;;4977364;28;89206;-73
2022/01/01 16:35:51;;;;;;;19.40;12.57;;;6.90;99.90;;;;;;4977062;28;89417;-75
2022/01/01 16:38:18;;;;;;;19.33;13.23;;;6.90;99.90;;;;;;4976270;28;90168;-72
2022/01/01 16:40:46;;;;;;;18.77;12.77;;;6.90;99.90;;;;;;4976828;28;89523;-73
2022/01/01 16:43:16;;;;;;;21.50;13.00;;;6.80;99.90;;;;;;4976397;28;89057;-74
2022/01/01 16:45:57;;;;;;;21.60;12.57;;;6.80;99.90;;;;;;4958354;28;89291;-72
2022/01/01 16:49:07;;;;;;;18.92;12.25;;;6.80;99.90;;;;;;4976521;28;90045;-73
2022/01/01 16:51:42;;;;;;;25.33;15.55;;;6.70;99.90;;;;;;4968780;28;90192;-72
2022/01/01 16:54:09;;;;;;;24.92;14.02;;;6.70;99.90;;;;;;4974568;28;90831;-74
2022/01/01 16:56:37;;;;;;;21.92;13.45;;;6.70;99.90;;;;;;4976630;28;89359;-73
2022/01/01 16:59:07;;;;;;;18.65;12.13;;;6.70;99.90;;;;;;4978457;28;89240;-72
2022/01/01 17:01:37;;;;;;;20.95;13.10;;;6.60;99.90;;;;;;4984508;28;89327;-71
2022/01/01 17:04:10;;;;;;;22.55;12.63;;;6.70;99.90;;;;;;4985053;28;89786;-72
2022/01/01 17:06:37;;;;;;;18.25;12.48;;;6.60;99.90;;;;;;4986916;28;89380;-73
2022/01/01 17:09:04;;;;;;;21.90;13.57;;;6.60;99.90;;;;;;4986152;28;89017;-71
2022/01/01 17:11:29;;;;;;;30.52;19.77;;;6.50;99.90;;;;;;4978491;28;89906;-76
2022/01/01 17:13:55;;;;;;;27.88;17.90;;;6.60;99.90;;;;;;4975169;28;89213;-76
2022/01/01 17:16:39;;;;;;;29.25;18.30;;;6.60;99.90;;;;;;5004945;22;91092;-79
2022/01/01 17:19:29;;;;;;;26.45;16.08;;;6.50;99.90;;;;;;4996100;28;89898;-79
2022/01/01 17:22:03;;;;;;;27.15;15.95;;;6.40;99.90;;;;;;4977107;28;91621;-79